createdAt,value
2022-09-21T00:01:39.545Z,15.60
2022-09-21T00:04:08.081Z,13.48
2022-09-21T00:06:38.866Z,9.77
2022-09-21T00:09:09.394Z,12.82
2022-09-21T00:11:38.333Z,10.13
2022-09-21T00:14:10.563Z,13.90
2022-09-21T00:16:39.926Z,16.02
2022-09-21T00:19:08.478Z,13.23
2022-09-21T00:21:39.337Z,12.75
2022-09-21T00:24:08.289Z,10.07
2022-09-21T00:26:36.659Z,13.15
2022-09-21T00:29:05.819Z,12.23
2022-09-21T00:31:34.195Z,12.13
2022-09-21T00:34:03.780Z,11.43
2022-09-21T00:36:32.215Z,12.60
2022-09-21T00:39:03.519Z,9.38
2022-09-21T00:41:33.978Z,10.80
2022-09-21T00:44:31.219Z,11.93
2022-09-21T00:47:04.174Z,12.35
2022-09-21T00:49:34.609Z,11.07
2022-09-21T00:52:05.520Z,12.20
2022-09-21T00:54:42.126Z,11.60
2022-09-21T00:57:11.283Z,12.55
2022-09-21T00:59:40.908Z,9.10
2022-09-21T01:02:09.474Z,11.82
2022-09-21T01:04:39.029Z,10.95
2022-09-21T01:07:12.413Z,10.57
2022-09-21T01:09:43.480Z,8.90
2022-09-21T01:12:26.876Z,10.43
2022-09-21T01:15:20.724Z,10.45
2022-09-21T01:17:58.603Z,12.55
2022-09-21T01:21:02.109Z,11.52
2022-09-21T01:23:43.847Z,9.30
2022-09-21T01:26:25.183Z,12.63
2022-09-21T01:29:11.382Z,9.15
2022-09-21T01:31:47.348Z,10.70
2022-09-21T01:34:22.409Z,9.95
2022-09-21T01:36:53.699Z,7.97
2022-09-21T01:39:23.682Z,9.75
2022-09-21T01:41:54.596Z,7.25
2022-09-21T01:44:28.724Z,8.23
2022-09-21T01:46:58.689Z,11.57
2022-09-21T01:49:31.235Z,11.77
2022-09-21T01:52:03.801Z,9.35
2022-09-21T01:54:39.382Z,10.05
2022-09-21T01:57:12.654Z,13.68
2022-09-21T01:59:51.051Z,13.73
2022-09-21T02:02:26.232Z,8.27
2022-09-21T02:04:57.134Z,8.75
2022-09-21T02:07:25.723Z,8.30
2022-09-21T02:09:55.848Z,10.35
2022-09-21T02:12:24.178Z,9.55
2022-09-21T02:14:55.672Z,10.95
2022-09-21T02:17:36.193Z,8.18
2022-09-21T02:20:17.621Z,7.43
2022-09-21T02:22:56.227Z,10.70
2022-09-21T02:25:32.811Z,7.15
2022-09-21T02:28:07.400Z,15.65
2022-09-21T02:30:38.479Z,6.85
2022-09-21T02:33:12.951Z,11.85
2022-09-21T02:35:45.597Z,9.60
2022-09-21T02:38:21.081Z,8.02
2022-09-21T02:40:54.096Z,8.98
2022-09-21T02:46:10.589Z,8.55
2022-09-21T02:48:44.215Z,10.15
2022-09-21T02:51:17.329Z,9.70
2022-09-21T02:53:48.363Z,8.05
2022-09-21T02:56:18.256Z,9.15
2022-09-21T02:58:50.774Z,10.80
2022-09-21T03:01:21.879Z,11.95
2022-09-21T03:03:50.635Z,10.55
2022-09-21T03:06:18.918Z,10.38
2022-09-21T03:08:47.243Z,9.38
2022-09-21T03:11:17.800Z,9.13
2022-09-21T03:13:46.086Z,15.18
2022-09-21T03:16:14.867Z,10.20
2022-09-21T03:18:45.254Z,11.80
2022-09-21T03:21:13.674Z,11.65
2022-09-21T03:23:42.001Z,10.93
2022-09-21T03:26:10.334Z,10.40
2022-09-21T03:28:38.567Z,10.13
2022-09-21T03:31:07.434Z,9.70
2022-09-21T03:33:35.783Z,11.52
2022-09-21T03:36:05.615Z,10.65
2022-09-21T03:38:33.932Z,8.52
2022-09-21T03:41:02.242Z,12.93
2022-09-21T03:43:30.781Z,10.98
2022-09-21T03:45:59.279Z,13.40
2022-09-21T03:48:27.804Z,11.20
2022-09-21T03:50:56.374Z,9.65
2022-09-21T03:53:26.181Z,12.25
2022-09-21T03:55:54.498Z,9.18
2022-09-21T03:58:22.725Z,12.18
2022-09-21T04:00:51.060Z,9.15
2022-09-21T04:03:19.299Z,9.55
2022-09-21T04:05:47.582Z,8.85
2022-09-21T04:08:15.807Z,14.60
2022-09-21T04:10:45.524Z,11.93
2022-09-21T04:13:13.874Z,13.25
2022-09-21T04:15:42.150Z,12.48
2022-09-21T04:18:10.525Z,13.37
2022-09-21T04:20:38.753Z,14.38
2022-09-21T04:23:07.859Z,12.00
2022-09-21T04:25:36.225Z,11.52
2022-09-21T04:28:05.933Z,8.55
2022-09-21T04:30:37.705Z,12.77
2022-09-21T04:33:06.308Z,11.82
2022-09-21T04:35:34.606Z,12.13
2022-09-21T04:38:03.461Z,17.27
2022-09-21T04:40:31.773Z,13.32
2022-09-21T04:43:00.154Z,10.27
2022-09-21T04:45:30.062Z,13.75
2022-09-21T04:47:58.365Z,16.13
2022-09-21T04:50:26.666Z,13.18
2022-09-21T04:53:04.690Z,13.80
2022-09-21T04:55:33.171Z,13.90
2022-09-21T04:58:01.520Z,15.02
2022-09-21T05:00:31.876Z,12.60
2022-09-21T05:03:00.229Z,12.95
2022-09-21T05:05:28.422Z,13.55
2022-09-21T05:07:56.753Z,13.80
2022-09-21T05:10:23.956Z,14.75
2022-09-21T05:12:52.649Z,12.23
2022-09-21T05:15:22.103Z,14.73
2022-09-21T05:17:51.694Z,14.75
2022-09-21T05:20:19.998Z,13.80
2022-09-21T05:22:48.322Z,15.88
2022-09-21T05:25:17.586Z,16.93
2022-09-21T05:27:45.854Z,19.55
2022-09-21T05:30:15.557Z,14.32
2022-09-21T05:32:49.643Z,13.43
2022-09-21T05:35:31.289Z,12.30
2022-09-21T05:38:05.466Z,13.60
2022-09-21T05:40:35.097Z,16.90
2022-09-21T05:43:03.916Z,16.65
2022-09-21T05:45:32.994Z,15.95
2022-09-21T05:48:12.452Z,13.68
2022-09-21T05:50:50.835Z,13.63
2022-09-21T05:53:35.041Z,12.53
2022-09-21T05:56:08.693Z,14.68
2022-09-21T05:58:43.551Z,16.45
2022-09-21T06:01:37.450Z,15.90
2022-09-21T06:04:06.352Z,15.65
2022-09-21T06:06:36.223Z,13.00
2022-09-21T06:09:04.527Z,14.80
2022-09-21T06:11:33.593Z,14.18
2022-09-21T06:14:02.993Z,12.55
2022-09-21T06:16:38.889Z,16.13
2022-09-21T06:19:07.638Z,13.90
2022-09-21T06:21:37.271Z,14.65
2022-09-21T06:24:05.950Z,18.30
2022-09-21T06:26:34.220Z,13.80
2022-09-21T06:29:02.749Z,18.23
2022-09-21T06:31:31.405Z,22.08
2022-09-21T06:33:59.771Z,19.70
2022-09-21T06:36:28.046Z,15.32
2022-09-21T06:38:57.977Z,16.95
2022-09-21T06:41:26.394Z,19.50
2022-09-21T06:43:56.842Z,17.73
2022-09-21T06:46:25.215Z,25.70
2022-09-21T06:48:53.966Z,58.47
2022-09-21T06:51:24.200Z,23.83
2022-09-21T06:53:57.784Z,21.73
2022-09-21T06:56:27.049Z,23.20
2022-09-21T06:58:56.698Z,22.27
2022-09-21T07:01:25.007Z,22.80
2022-09-21T07:03:54.162Z,18.40
2022-09-21T07:06:22.528Z,17.80
2022-09-21T07:11:43.085Z,20.08
2022-09-21T07:14:11.380Z,18.15
2022-09-21T07:16:40.076Z,20.98
2022-09-21T07:19:12.048Z,22.83
2022-09-21T07:21:40.642Z,19.02
2022-09-21T07:24:12.452Z,21.90
2022-09-21T07:26:42.489Z,18.95
2022-09-21T07:29:10.813Z,16.45
2022-09-21T07:31:39.509Z,14.73
2022-09-21T07:34:07.845Z,11.73
2022-09-21T07:36:36.174Z,14.63
2022-09-21T07:39:05.291Z,16.80
2022-09-21T07:41:33.623Z,14.23
2022-09-21T07:44:03.606Z,14.30
2022-09-21T07:46:32.309Z,12.52
2022-09-21T07:49:00.817Z,13.35
2022-09-21T07:51:29.063Z,12.23
2022-09-21T07:53:58.093Z,15.63
2022-09-21T07:56:26.616Z,13.05
2022-09-21T07:59:09.087Z,11.23
2022-09-21T08:01:39.939Z,10.23
2022-09-21T08:04:09.946Z,13.25
2022-09-21T08:06:40.601Z,10.55
2022-09-21T08:09:09.530Z,11.13
2022-09-21T08:11:39.143Z,10.85
2022-09-21T08:14:07.702Z,14.07
2022-09-21T08:16:36.115Z,12.05
2022-09-21T08:19:05.897Z,11.65
2022-09-21T08:21:34.583Z,10.98
2022-09-21T08:24:03.151Z,13.23
2022-09-21T08:26:31.391Z,9.75
2022-09-21T08:28:59.726Z,15.23
2022-09-21T08:31:28.337Z,10.98
2022-09-21T08:33:57.737Z,8.32
2022-09-21T08:36:27.473Z,12.55
2022-09-21T08:38:57.036Z,10.90
2022-09-21T08:41:35.234Z,7.68
2022-09-21T08:44:11.673Z,14.60
2022-09-21T08:46:41.886Z,6.93
2022-09-21T08:49:18.646Z,11.88
2022-09-21T08:51:58.238Z,10.10
2022-09-21T08:54:35.874Z,12.80
2022-09-21T08:57:09.549Z,7.80
2022-09-21T08:59:43.850Z,14.98
2022-09-21T09:02:44.275Z,12.48
2022-09-21T09:05:32.711Z,11.27
2022-09-21T09:08:29.372Z,10.93
2022-09-21T09:11:14.598Z,9.35
2022-09-21T09:14:08.141Z,10.68
2022-09-21T09:16:49.351Z,9.73
2022-09-21T09:19:31.094Z,8.15
2022-09-21T09:22:08.657Z,9.20
2022-09-21T09:24:46.957Z,8.27
2022-09-21T09:27:21.506Z,9.10
2022-09-21T09:30:02.938Z,9.40
2022-09-21T09:32:42.493Z,7.80
2022-09-21T09:35:27.911Z,11.10
2022-09-21T09:38:11.274Z,6.38
2022-09-21T09:41:00.700Z,7.95
2022-09-21T09:43:49.974Z,10.02
2022-09-21T09:46:29.802Z,9.38
2022-09-21T09:49:30.361Z,8.27
2022-09-21T09:52:08.995Z,11.35
2022-09-21T09:54:43.628Z,8.43
2022-09-21T09:57:19.839Z,8.55
2022-09-21T09:59:55.510Z,9.88
2022-09-21T10:02:31.590Z,11.48
2022-09-21T10:05:06.441Z,11.70
2022-09-21T10:07:36.953Z,9.55
2022-09-21T10:10:32.360Z,8.88
2022-09-21T10:13:13.804Z,8.27
2022-09-21T10:15:51.106Z,8.30
2022-09-21T10:18:23.583Z,6.80
2022-09-21T10:21:04.163Z,4.93
2022-09-21T10:23:35.456Z,8.15
2022-09-21T10:26:11.569Z,11.93
2022-09-21T10:28:56.699Z,12.85
2022-09-21T10:31:28.253Z,7.60
2022-09-21T10:34:12.716Z,8.80
2022-09-21T10:36:40.821Z,8.10
2022-09-21T10:39:28.493Z,7.00
2022-09-21T10:42:03.591Z,5.80
2022-09-21T10:44:40.480Z,9.32
2022-09-21T10:47:36.164Z,9.13
2022-09-21T10:50:08.898Z,4.63
2022-09-21T10:52:40.546Z,5.90
2022-09-21T10:55:19.026Z,9.02
2022-09-21T10:57:49.212Z,8.63
2022-09-21T11:00:42.898Z,10.02
2022-09-21T11:03:48.236Z,9.43
2022-09-21T11:06:22.542Z,6.20
2022-09-21T11:08:56.248Z,6.30
2022-09-21T11:11:47.998Z,8.93
2022-09-21T11:14:36.374Z,8.13
2022-09-21T11:17:13.427Z,10.30
2022-09-21T11:19:45.475Z,11.95
2022-09-21T11:22:20.186Z,5.63
2022-09-21T11:24:55.766Z,9.30
2022-09-21T11:27:32.235Z,7.90
2022-09-21T11:30:04.189Z,6.40
2022-09-21T11:32:48.169Z,9.32
2022-09-21T11:35:33.056Z,5.63
2022-09-21T11:38:15.986Z,10.48
2022-09-21T11:41:19.106Z,7.85
2022-09-21T11:44:17.827Z,3.97
2022-09-21T11:46:57.024Z,8.10
2022-09-21T11:50:30.716Z,10.50
2022-09-21T11:53:20.458Z,8.95
2022-09-21T11:56:27.075Z,7.38
2022-09-21T11:59:14.263Z,7.50
2022-09-21T12:02:09.231Z,8.93
2022-09-21T12:04:49.242Z,9.02
2022-09-21T12:07:27.288Z,7.72
2022-09-21T12:10:10.431Z,6.22
2022-09-21T12:12:45.769Z,9.38
2022-09-21T12:15:27.219Z,9.00
2022-09-21T12:18:10.086Z,12.50
2022-09-21T12:20:54.510Z,8.60
2022-09-21T12:23:31.935Z,11.90
2022-09-21T12:26:10.897Z,9.55
2022-09-21T12:28:48.183Z,13.68
2022-09-21T12:31:23.284Z,5.55
2022-09-21T12:33:58.119Z,7.60
2022-09-21T12:36:39.558Z,8.30
2022-09-21T12:40:03.966Z,9.10
2022-09-21T12:42:39.883Z,8.00
2022-09-21T12:45:19.139Z,7.72
2022-09-21T12:47:54.873Z,9.15
2022-09-21T12:50:44.601Z,11.18
2022-09-21T12:53:19.257Z,11.00
2022-09-21T12:55:57.476Z,8.13
2022-09-21T12:58:46.795Z,7.20
2022-09-21T13:01:32.327Z,8.82
2022-09-21T13:04:25.904Z,7.70
2022-09-21T13:07:33.823Z,9.50
2022-09-21T13:10:09.230Z,5.22
2022-09-21T13:12:46.394Z,7.63
2022-09-21T13:15:27.613Z,5.30
2022-09-21T13:18:02.164Z,7.05
2022-09-21T13:20:40.643Z,3.33
2022-09-21T13:23:18.142Z,7.53
2022-09-21T13:25:50.811Z,6.93
2022-09-21T13:28:26.751Z,7.53
2022-09-21T13:31:43.852Z,4.32
2022-09-21T13:34:32.472Z,7.95
2022-09-21T13:37:33.264Z,12.75
2022-09-21T13:40:42.000Z,8.10
2022-09-21T13:43:26.962Z,10.05
2022-09-21T13:46:12.188Z,5.00
2022-09-21T13:48:42.789Z,7.75
2022-09-21T13:51:17.812Z,7.60
2022-09-21T13:53:47.250Z,5.95
2022-09-21T13:56:23.685Z,8.13
2022-09-21T13:58:58.446Z,5.28
2022-09-21T14:01:47.435Z,9.98
2022-09-21T14:04:25.227Z,5.80
2022-09-21T14:06:58.544Z,5.13
2022-09-21T14:09:31.580Z,5.32
2022-09-21T14:12:06.347Z,8.27
2022-09-21T14:14:37.437Z,6.35
2022-09-21T14:17:38.820Z,6.72
2022-09-21T14:20:30.844Z,8.20
2022-09-21T14:23:29.056Z,6.53
2022-09-21T14:25:59.422Z,7.88
2022-09-21T14:28:40.131Z,7.28
2022-09-21T14:31:19.640Z,5.80
2022-09-21T14:33:51.511Z,8.30
2022-09-21T14:36:31.215Z,3.22
2022-09-21T14:39:17.732Z,7.68
2022-09-21T14:41:53.799Z,6.05
2022-09-21T14:44:24.305Z,3.55
2022-09-21T14:47:22.669Z,9.07
2022-09-21T14:50:17.863Z,4.35
2022-09-21T14:53:01.812Z,8.80
2022-09-21T14:55:43.989Z,4.57
2022-09-21T14:58:31.544Z,5.63
2022-09-21T15:01:22.407Z,7.13
2022-09-21T15:04:09.312Z,5.78
2022-09-21T15:07:00.346Z,5.47
2022-09-21T15:10:08.454Z,4.32
2022-09-21T15:12:46.695Z,4.78
2022-09-21T15:15:30.932Z,6.72
2022-09-21T15:18:01.946Z,7.97
2022-09-21T15:20:32.167Z,8.55
2022-09-21T15:23:02.094Z,6.60
2022-09-21T15:25:34.782Z,3.75
2022-09-21T15:28:04.528Z,9.88
2022-09-21T15:30:34.234Z,6.07
2022-09-21T15:33:03.423Z,7.45
2022-09-21T15:35:33.620Z,7.10
2022-09-21T15:38:02.276Z,8.38
2022-09-21T15:40:33.872Z,7.22
2022-09-21T15:43:05.646Z,5.75
2022-09-21T15:45:54.735Z,8.75
2022-09-21T15:48:23.351Z,6.38
2022-09-21T15:50:58.191Z,4.32
2022-09-21T15:53:31.008Z,8.93
2022-09-21T15:56:01.546Z,6.78
2022-09-21T15:58:37.112Z,5.45
2022-09-21T16:01:11.460Z,10.32
2022-09-21T16:03:40.870Z,3.47
2022-09-21T16:06:25.594Z,7.38
2022-09-21T16:08:54.034Z,7.78
2022-09-21T16:11:35.350Z,8.35
2022-09-21T16:14:28.290Z,4.70
2022-09-21T16:17:22.062Z,5.47
2022-09-21T16:20:16.040Z,6.32
2022-09-21T16:22:47.462Z,6.78
2022-09-21T16:25:28.837Z,4.43
2022-09-21T16:27:58.982Z,9.88
2022-09-21T16:30:45.173Z,6.70
2022-09-21T16:33:40.990Z,5.20
2022-09-21T16:36:43.879Z,6.07
2022-09-21T16:39:15.740Z,6.80
2022-09-21T16:42:02.511Z,7.07
2022-09-21T16:44:34.411Z,5.40
2022-09-21T16:47:04.769Z,8.23
2022-09-21T16:49:35.723Z,7.00
2022-09-21T16:52:03.951Z,9.02
2022-09-21T16:54:32.017Z,8.75
2022-09-21T16:57:01.695Z,8.57
2022-09-21T16:59:30.216Z,7.95
2022-09-21T17:01:59.438Z,5.07
2022-09-21T17:04:30.842Z,7.50
2022-09-21T17:07:00.429Z,7.65
2022-09-21T17:09:32.448Z,9.77
2022-09-21T17:12:01.759Z,6.55
2022-09-21T17:14:35.292Z,7.07
2022-09-21T17:17:08.412Z,6.28
2022-09-21T17:19:38.377Z,5.75
2022-09-21T17:22:07.262Z,8.57
2022-09-21T17:24:50.332Z,6.72
2022-09-21T17:27:21.467Z,6.25
2022-09-21T17:29:50.636Z,6.72
2022-09-21T17:32:20.890Z,8.98
2022-09-21T17:34:56.379Z,12.43
2022-09-21T17:37:25.296Z,5.93
2022-09-21T17:39:54.298Z,11.52
2022-09-21T17:42:25.762Z,7.57
2022-09-21T17:45:19.631Z,10.32
2022-09-21T17:47:50.287Z,9.63
2022-09-21T17:50:24.142Z,9.40
2022-09-21T17:53:12.355Z,11.82
2022-09-21T17:55:44.494Z,8.57
2022-09-21T17:58:33.734Z,7.95
2022-09-21T18:01:07.614Z,8.98
2022-09-21T18:03:40.978Z,7.45
2022-09-21T18:06:12.166Z,10.82
2022-09-21T18:08:41.545Z,7.10
2022-09-21T18:11:20.127Z,9.98
2022-09-21T18:13:55.207Z,10.88
2022-09-21T18:16:28.314Z,8.70
2022-09-21T18:19:21.459Z,8.35
2022-09-21T18:21:58.110Z,5.18
2022-09-21T18:24:31.233Z,8.18
2022-09-21T18:27:00.888Z,7.35
2022-09-21T18:29:40.734Z,9.60
2022-09-21T18:41:13.949Z,10.77
2022-09-21T18:44:51.339Z,10.38
2022-09-21T18:53:00.374Z,10.75
2022-09-21T19:04:30.830Z,11.15
2022-09-21T19:07:04.209Z,11.52
2022-09-21T19:09:41.371Z,12.30
2022-09-21T19:12:19.263Z,14.18
2022-09-21T19:14:56.196Z,12.48
2022-09-21T19:17:38.862Z,12.15
2022-09-21T19:20:30.059Z,10.15
2022-09-21T19:23:07.422Z,13.07
2022-09-21T19:25:44.740Z,17.02
2022-09-21T19:28:34.158Z,14.45
2022-09-21T19:31:09.638Z,15.45
2022-09-21T19:33:49.921Z,14.10
2022-09-21T19:36:21.093Z,11.98
2022-09-21T19:38:49.582Z,8.88
2022-09-21T19:41:35.174Z,16.55
2022-09-21T19:44:17.195Z,14.23
2022-09-21T19:46:54.615Z,13.13
2022-09-21T19:49:25.389Z,16.42
2022-09-21T19:51:58.029Z,14.45
2022-09-21T19:54:44.382Z,16.10
2022-09-21T20:00:48.995Z,17.58
2022-09-21T20:04:25.803Z,17.60
2022-09-21T20:07:08.129Z,17.60
2022-09-21T20:09:42.161Z,17.15
2022-09-21T20:12:18.870Z,16.30
2022-09-21T20:14:54.474Z,17.88
2022-09-21T20:17:32.369Z,18.20
2022-09-21T20:20:08.876Z,19.40
2022-09-21T20:22:40.498Z,20.67
2022-09-21T20:25:16.610Z,22.90
2022-09-21T20:27:48.381Z,20.17
2022-09-21T20:30:19.041Z,21.35
2022-09-21T20:32:50.733Z,23.48
2022-09-21T20:35:20.594Z,26.92
2022-09-21T20:37:50.573Z,26.00
2022-09-21T20:40:20.435Z,23.98
2022-09-21T20:42:48.698Z,24.60
2022-09-21T20:45:17.463Z,19.38
2022-09-21T20:47:45.598Z,18.23
2022-09-21T20:53:43.370Z,16.13
2022-09-21T20:56:13.072Z,18.33
2022-09-21T20:58:41.230Z,19.80
2022-09-21T21:01:10.714Z,17.77
2022-09-21T21:03:39.080Z,17.70
2022-09-21T21:06:11.845Z,16.27
2022-09-21T21:08:40.374Z,16.60
2022-09-21T21:11:10.738Z,18.38
2022-09-21T21:13:39.171Z,16.00
2022-09-21T21:16:11.817Z,17.55
2022-09-21T21:18:41.335Z,17.20
2022-09-21T21:21:09.678Z,14.27
2022-09-21T21:23:58.941Z,16.15
2022-09-21T21:26:57.395Z,17.05
2022-09-21T21:29:19.061Z,16.48
2022-09-21T21:31:47.874Z,15.35
2022-09-21T21:34:16.291Z,15.50
2022-09-21T21:36:44.686Z,16.20
2022-09-21T21:39:12.720Z,14.60
2022-09-21T21:41:43.495Z,13.68
2022-09-21T21:44:15.209Z,15.27
2022-09-21T21:46:45.993Z,13.25
2022-09-21T21:49:14.421Z,17.02
2022-09-21T21:51:44.583Z,17.40
2022-09-21T21:54:13.107Z,18.27
2022-09-21T21:56:42.628Z,20.52
2022-09-21T21:59:14.171Z,14.65
2022-09-21T22:01:45.510Z,21.58
2022-09-21T22:04:14.324Z,16.40
2022-09-21T22:06:42.674Z,16.80
2022-09-21T22:09:12.004Z,15.02
2022-09-21T22:11:40.165Z,19.67
2022-09-21T22:14:11.637Z,20.27
2022-09-21T22:16:39.805Z,19.30
2022-09-21T22:19:09.446Z,18.13
2022-09-21T22:21:41.834Z,18.10
2022-09-21T22:24:10.725Z,16.90
2022-09-21T22:26:40.837Z,18.13
2022-09-21T22:29:11.840Z,16.38
2022-09-21T22:31:42.015Z,17.90
2022-09-21T22:34:10.777Z,18.60
2022-09-21T22:36:39.601Z,17.83
2022-09-21T22:39:09.138Z,16.98
2022-09-21T22:41:38.833Z,20.15
2022-09-21T22:44:07.664Z,18.67
2022-09-21T22:46:38.047Z,16.83
2022-09-21T22:49:06.261Z,19.38
2022-09-21T22:51:35.250Z,19.10
2022-09-21T22:54:03.330Z,17.00
2022-09-21T22:56:32.898Z,20.00
2022-09-21T22:59:02.351Z,19.33
2022-09-21T23:01:33.594Z,20.50
2022-09-21T23:04:06.088Z,19.10
2022-09-21T23:06:37.036Z,19.70
2022-09-21T23:09:08.256Z,16.95
2022-09-21T23:11:38.669Z,17.27
2022-09-21T23:14:07.078Z,18.00
2022-09-21T23:16:35.291Z,20.67
2022-09-21T23:19:05.246Z,21.85
2022-09-21T23:21:33.373Z,18.13
2022-09-21T23:24:03.208Z,16.35
2022-09-21T23:26:34.052Z,16.80
2022-09-21T23:29:04.329Z,16.30
2022-09-21T23:31:33.593Z,18.70
2022-09-21T23:34:07.408Z,16.05
2022-09-21T23:36:37.182Z,15.25
2022-09-21T23:39:07.140Z,17.92
2022-09-21T23:41:36.602Z,19.90
2022-09-21T23:44:05.979Z,15.63
2022-09-21T23:46:35.917Z,19.88
2022-09-21T23:49:06.154Z,19.38
2022-09-21T23:51:34.652Z,15.82
2022-09-21T23:54:02.922Z,16.63
2022-09-21T23:56:31.749Z,17.65
2022-09-21T23:59:00.338Z,17.48
